createdAt,value
2022-09-30T00:01:57.307Z,16.48
2022-09-30T00:04:43.089Z,18.25
2022-09-30T00:07:28.393Z,18.60
2022-09-30T00:10:15.002Z,17.42
2022-09-30T00:13:00.261Z,17.83
2022-09-30T00:15:47.285Z,18.63
2022-09-30T00:18:33.771Z,19.10
2022-09-30T00:21:19.213Z,17.10
2022-09-30T00:24:05.948Z,13.93
2022-09-30T00:26:53.275Z,14.93
2022-09-30T00:29:38.852Z,12.52
2022-09-30T00:32:24.196Z,12.27
2022-09-30T00:35:09.597Z,14.80
2022-09-30T00:37:55.224Z,14.18
2022-09-30T00:40:41.066Z,12.65
2022-09-30T00:43:53.444Z,12.20
2022-09-30T00:46:44.641Z,9.93
2022-09-30T00:49:30.464Z,10.65
2022-09-30T00:52:15.976Z,10.60
2022-09-30T00:55:05.326Z,9.60
2022-09-30T00:57:51.060Z,11.27
2022-09-30T01:00:37.126Z,9.30
2022-09-30T01:03:23.451Z,11.02
2022-09-30T01:06:10.119Z,10.95
2022-09-30T01:08:55.518Z,10.50
2022-09-30T01:11:41.422Z,12.60
2022-09-30T01:14:28.448Z,11.82
2022-09-30T01:18:02.792Z,11.85
2022-09-30T01:21:07.755Z,12.23
2022-09-30T01:23:56.715Z,13.18
2022-09-30T01:27:05.472Z,14.90
2022-09-30T01:30:05.726Z,14.13
2022-09-30T01:33:01.007Z,14.68
2022-09-30T01:36:10.444Z,13.65
2022-09-30T01:39:14.786Z,13.88
2022-09-30T01:42:18.323Z,14.45
2022-09-30T01:45:29.900Z,15.07
2022-09-30T01:48:34.099Z,17.13
2022-09-30T01:51:32.511Z,15.98
2022-09-30T01:54:33.017Z,14.63
2022-09-30T01:57:48.778Z,13.80
2022-09-30T02:00:38.617Z,14.15
2022-09-30T02:03:42.312Z,15.07
2022-09-30T02:06:38.049Z,12.85
2022-09-30T02:09:34.070Z,15.48
2022-09-30T02:12:23.881Z,14.60
2022-09-30T02:15:14.989Z,14.68
2022-09-30T02:18:20.286Z,15.43
2022-09-30T02:21:08.425Z,15.30
2022-09-30T02:24:00.515Z,16.15
2022-09-30T02:26:49.136Z,15.75
2022-09-30T02:29:39.568Z,15.77
2022-09-30T02:32:31.084Z,16.48
2022-09-30T02:35:35.905Z,16.25
2022-09-30T02:38:31.401Z,15.60
2022-09-30T02:41:23.374Z,16.48
2022-09-30T02:44:09.626Z,16.63
2022-09-30T02:47:34.246Z,16.42
2022-09-30T02:50:33.466Z,15.52
2022-09-30T02:53:33.471Z,16.85
2022-09-30T02:56:31.378Z,14.98
2022-09-30T02:59:17.149Z,14.88
2022-09-30T03:02:03.259Z,14.82
2022-09-30T03:04:51.284Z,13.05
2022-09-30T03:07:37.790Z,11.77
2022-09-30T03:10:24.385Z,12.65
2022-09-30T03:13:21.735Z,12.10
2022-09-30T03:16:22.133Z,11.88
2022-09-30T03:19:29.149Z,11.90
2022-09-30T03:22:33.171Z,11.20
2022-09-30T03:25:33.438Z,9.75
2022-09-30T03:28:42.923Z,10.43
2022-09-30T03:31:40.685Z,9.50
2022-09-30T03:34:52.551Z,9.90
2022-09-30T03:37:45.496Z,10.87
2022-09-30T03:40:37.316Z,10.50
2022-09-30T03:43:31.957Z,10.43
2022-09-30T03:46:23.496Z,10.93
2022-09-30T03:49:14.684Z,10.80
2022-09-30T03:52:05.282Z,9.73
2022-09-30T03:54:53.778Z,10.55
2022-09-30T03:57:39.378Z,11.52
2022-09-30T04:00:24.997Z,10.77
2022-09-30T04:03:10.399Z,11.32
2022-09-30T04:05:55.924Z,11.23
2022-09-30T04:08:41.178Z,11.50
2022-09-30T04:11:26.629Z,10.68
2022-09-30T04:14:12.085Z,10.93
2022-09-30T04:16:58.279Z,10.43
2022-09-30T04:19:44.201Z,12.02
2022-09-30T04:22:29.394Z,11.48
2022-09-30T04:25:14.846Z,11.70
2022-09-30T04:28:00.274Z,11.18
2022-09-30T04:30:45.715Z,11.25
2022-09-30T04:33:31.370Z,11.15
2022-09-30T04:36:17.463Z,11.32
2022-09-30T04:39:02.897Z,11.50
2022-09-30T04:41:49.011Z,10.82
2022-09-30T04:44:35.391Z,11.82
2022-09-30T04:47:20.708Z,11.60
2022-09-30T04:50:06.400Z,12.55
2022-09-30T04:52:52.493Z,12.82
2022-09-30T04:55:38.723Z,11.75
2022-09-30T04:58:24.873Z,11.02
2022-09-30T05:01:19.509Z,11.45
2022-09-30T05:04:05.286Z,10.48
2022-09-30T05:06:50.766Z,11.82
2022-09-30T05:09:36.524Z,14.95
2022-09-30T05:12:22.091Z,15.15
2022-09-30T05:15:08.704Z,13.50
2022-09-30T05:17:54.539Z,11.75
2022-09-30T05:20:40.361Z,11.00
2022-09-30T05:23:27.735Z,9.90
2022-09-30T05:26:13.661Z,11.00
2022-09-30T05:28:59.081Z,11.23
2022-09-30T05:31:44.507Z,10.75
2022-09-30T05:34:30.343Z,10.20
2022-09-30T05:37:15.836Z,11.82
2022-09-30T05:40:01.214Z,12.35
2022-09-30T05:42:47.482Z,10.60
2022-09-30T05:45:32.968Z,10.68
2022-09-30T05:48:18.303Z,9.63
2022-09-30T05:51:03.880Z,10.25
2022-09-30T05:53:49.258Z,10.48
2022-09-30T05:56:34.776Z,9.70
2022-09-30T05:59:20.137Z,9.85
2022-09-30T06:02:05.964Z,10.57
2022-09-30T06:04:51.410Z,9.63
2022-09-30T06:07:37.986Z,9.98
2022-09-30T06:10:24.226Z,10.20
2022-09-30T06:13:10.263Z,9.95
2022-09-30T06:16:00.288Z,10.00
2022-09-30T06:18:45.984Z,8.75
2022-09-30T06:21:32.133Z,9.70
2022-09-30T06:24:17.760Z,10.38
2022-09-30T06:27:03.122Z,9.30
2022-09-30T06:29:48.740Z,9.90
2022-09-30T06:32:34.261Z,10.20
2022-09-30T06:35:20.599Z,9.90
2022-09-30T06:38:06.156Z,8.95
2022-09-30T06:40:51.661Z,8.02
2022-09-30T06:43:49.095Z,8.45
2022-09-30T06:46:53.014Z,7.20
2022-09-30T06:49:48.126Z,7.38
2022-09-30T06:52:35.131Z,6.72
2022-09-30T06:55:22.649Z,6.70
2022-09-30T06:58:13.809Z,9.05
2022-09-30T07:01:06.978Z,8.35
2022-09-30T07:03:57.858Z,8.68
2022-09-30T07:06:43.997Z,7.75
2022-09-30T07:09:29.823Z,8.15
2022-09-30T07:12:15.191Z,7.00
2022-09-30T07:15:00.618Z,6.68
2022-09-30T07:17:51.851Z,7.50
2022-09-30T07:20:37.467Z,7.55
2022-09-30T07:23:27.142Z,8.23
2022-09-30T07:26:22.678Z,7.40
2022-09-30T07:29:08.337Z,7.70
2022-09-30T07:31:54.369Z,7.18
2022-09-30T07:34:44.317Z,8.05
2022-09-30T07:37:36.032Z,6.47
2022-09-30T07:40:21.875Z,7.43
2022-09-30T07:43:07.713Z,6.72
2022-09-30T07:45:55.792Z,7.03
2022-09-30T07:48:44.872Z,7.53
2022-09-30T07:51:36.775Z,7.35
2022-09-30T07:54:25.302Z,9.10
2022-09-30T07:57:11.739Z,8.18
2022-09-30T07:59:57.847Z,7.00
2022-09-30T08:02:43.159Z,7.55
2022-09-30T08:05:28.637Z,7.55
2022-09-30T08:08:16.032Z,8.63
2022-09-30T08:11:02.331Z,8.75
2022-09-30T08:13:52.616Z,9.80
2022-09-30T08:16:37.948Z,8.88
2022-09-30T08:19:24.786Z,9.82
2022-09-30T08:22:10.814Z,10.32
2022-09-30T08:24:56.044Z,11.32
2022-09-30T08:27:41.505Z,11.38
2022-09-30T08:30:27.092Z,11.07
2022-09-30T08:33:12.491Z,13.43
2022-09-30T08:36:12.441Z,12.65
2022-09-30T08:38:58.638Z,11.88
2022-09-30T08:42:19.185Z,11.45
2022-09-30T08:44:52.268Z,10.27
2022-09-30T08:47:48.719Z,11.02
2022-09-30T08:50:37.794Z,11.75
2022-09-30T08:53:11.662Z,10.77
2022-09-30T08:55:45.010Z,12.30
2022-09-30T08:58:21.830Z,12.60
2022-09-30T09:00:53.047Z,13.25
2022-09-30T09:03:20.834Z,13.38
2022-09-30T09:06:01.050Z,13.07
2022-09-30T09:08:52.357Z,13.15
2022-09-30T09:11:43.339Z,13.95
2022-09-30T09:14:40.929Z,13.23
2022-09-30T09:17:31.859Z,15.07
2022-09-30T09:20:15.509Z,14.32
2022-09-30T09:22:45.593Z,13.27
2022-09-30T09:25:19.390Z,13.63
2022-09-30T09:28:16.105Z,12.55
2022-09-30T09:30:54.731Z,12.40
2022-09-30T09:33:27.780Z,12.43
2022-09-30T09:36:19.218Z,12.25
2022-09-30T09:39:27.678Z,12.30
2022-09-30T09:42:07.699Z,11.13
2022-09-30T09:44:45.003Z,11.57
2022-09-30T09:47:17.386Z,11.80
2022-09-30T09:49:58.624Z,10.73
2022-09-30T09:52:43.341Z,10.20
2022-09-30T09:55:12.082Z,10.63
2022-09-30T09:57:40.282Z,10.70
2022-09-30T10:00:27.695Z,10.10
2022-09-30T10:03:23.470Z,9.75
2022-09-30T10:06:03.642Z,9.10
2022-09-30T10:08:33.975Z,7.90
2022-09-30T10:11:18.380Z,9.50
2022-09-30T10:13:45.772Z,8.07
2022-09-30T10:16:25.041Z,8.88
2022-09-30T10:18:52.244Z,8.18
2022-09-30T10:21:25.123Z,8.27
2022-09-30T10:23:52.603Z,9.50
2022-09-30T10:26:22.091Z,9.40
2022-09-30T10:29:02.140Z,8.98
2022-09-30T10:31:38.783Z,8.20
2022-09-30T10:34:25.051Z,7.22
2022-09-30T10:36:53.553Z,8.43
2022-09-30T10:39:27.379Z,8.15
2022-09-30T10:42:08.607Z,8.73
2022-09-30T10:44:49.443Z,9.90
2022-09-30T10:47:19.710Z,9.25
2022-09-30T10:50:00.903Z,9.50
2022-09-30T10:52:31.110Z,8.38
2022-09-30T10:54:59.236Z,9.15
2022-09-30T10:57:31.809Z,8.45
2022-09-30T11:00:00.198Z,8.65
2022-09-30T11:02:56.983Z,9.02
2022-09-30T11:05:24.928Z,8.90
2022-09-30T11:08:02.328Z,9.10
2022-09-30T11:10:51.285Z,8.07
2022-09-30T11:13:29.938Z,8.60
2022-09-30T11:16:15.065Z,8.60
2022-09-30T11:18:56.314Z,8.43
2022-09-30T11:21:29.452Z,8.73
2022-09-30T11:24:05.703Z,9.15
2022-09-30T11:27:02.152Z,8.00
2022-09-30T11:30:01.318Z,8.30
2022-09-30T11:32:59.400Z,8.25
2022-09-30T11:35:48.733Z,9.68
2022-09-30T11:38:33.248Z,8.57
2022-09-30T11:41:17.598Z,7.65
2022-09-30T11:44:05.594Z,6.47
2022-09-30T11:46:55.600Z,8.55
2022-09-30T11:49:55.588Z,8.15
2022-09-30T11:53:00.334Z,7.15
2022-09-30T11:55:57.613Z,6.53
2022-09-30T11:58:41.124Z,7.75
2022-09-30T12:01:30.530Z,9.88
2022-09-30T12:04:08.391Z,8.15
2022-09-30T12:06:44.212Z,7.95
2022-09-30T12:09:22.389Z,8.90
2022-09-30T12:11:52.151Z,10.27
2022-09-30T12:14:42.839Z,9.93
2022-09-30T12:17:32.118Z,8.05
2022-09-30T12:20:07.273Z,6.97
2022-09-30T12:22:42.353Z,7.15
2022-09-30T12:25:21.605Z,6.63
2022-09-30T12:28:24.023Z,6.72
2022-09-30T12:31:00.170Z,6.82
2022-09-30T12:34:04.467Z,6.65
2022-09-30T12:36:43.538Z,7.13
2022-09-30T12:39:41.763Z,7.63
2022-09-30T12:43:05.897Z,7.18
2022-09-30T12:46:14.747Z,7.20
2022-09-30T12:48:44.363Z,7.05
2022-09-30T12:51:31.215Z,8.10
2022-09-30T12:54:13.838Z,8.82
2022-09-30T12:56:46.181Z,7.80
2022-09-30T12:59:14.445Z,9.60
2022-09-30T13:01:42.516Z,9.20
2022-09-30T13:04:16.887Z,9.20
2022-09-30T13:06:46.460Z,8.73
2022-09-30T13:09:16.101Z,9.00
2022-09-30T13:11:55.178Z,9.07
2022-09-30T13:14:26.342Z,10.13
2022-09-30T13:17:06.617Z,9.73
2022-09-30T13:19:41.564Z,9.68
2022-09-30T13:22:20.675Z,10.43
2022-09-30T13:24:57.663Z,10.88
2022-09-30T13:27:43.319Z,11.35
2022-09-30T13:30:13.308Z,11.38
2022-09-30T13:32:43.648Z,11.15
2022-09-30T13:35:35.585Z,10.95
2022-09-30T13:41:03.296Z,10.82
2022-09-30T13:43:30.471Z,10.82
2022-09-30T13:46:04.925Z,11.02
2022-09-30T13:48:41.381Z,12.02
2022-09-30T13:51:14.947Z,11.80
2022-09-30T13:53:51.372Z,12.50
2022-09-30T13:56:23.092Z,12.27
2022-09-30T14:01:42.333Z,12.32
2022-09-30T14:04:31.133Z,12.65
2022-09-30T14:07:04.298Z,13.13
2022-09-30T14:09:58.767Z,12.98
2022-09-30T14:12:52.154Z,12.77
2022-09-30T14:15:49.140Z,12.48
2022-09-30T14:18:22.953Z,12.48
2022-09-30T14:21:28.218Z,12.32
2022-09-30T14:24:09.485Z,13.82
2022-09-30T14:26:36.387Z,14.57
2022-09-30T14:29:43.479Z,13.82
2022-09-30T14:32:20.789Z,12.70
2022-09-30T14:34:49.220Z,11.77
2022-09-30T14:37:31.228Z,12.13
2022-09-30T14:39:59.950Z,13.18
2022-09-30T14:42:33.345Z,13.18
2022-09-30T14:45:06.025Z,12.05
2022-09-30T14:47:44.911Z,13.23
2022-09-30T14:50:17.769Z,13.32
2022-09-30T14:52:47.073Z,13.85
2022-09-30T14:55:42.780Z,14.65
2022-09-30T14:58:22.283Z,14.02
2022-09-30T15:01:00.473Z,15.98
2022-09-30T15:03:29.165Z,13.70
2022-09-30T15:05:58.267Z,14.07
2022-09-30T15:08:25.600Z,13.35
2022-09-30T15:10:55.416Z,15.60
2022-09-30T15:13:26.321Z,13.32
2022-09-30T15:15:54.065Z,14.40
2022-09-30T15:18:28.189Z,13.05
2022-09-30T15:20:59.450Z,15.57
2022-09-30T15:23:31.294Z,18.05
2022-09-30T15:28:26.461Z,19.40
2022-09-30T15:30:58.323Z,18.30
2022-09-30T15:33:32.500Z,23.02
2022-09-30T15:36:05.981Z,18.40
2022-09-30T15:38:37.493Z,17.63
2022-09-30T15:41:08.961Z,17.80
2022-09-30T15:43:40.924Z,18.85
2022-09-30T15:46:28.863Z,17.70
2022-09-30T15:49:29.109Z,17.42
2022-09-30T15:52:20.727Z,16.27
2022-09-30T15:54:48.461Z,14.13
2022-09-30T15:57:51.538Z,15.10
2022-09-30T16:00:40.241Z,14.88
2022-09-30T16:03:08.040Z,15.40
2022-09-30T16:05:35.592Z,16.00
2022-09-30T16:08:09.828Z,16.77
2022-09-30T16:10:37.730Z,16.60
2022-09-30T16:13:07.030Z,16.73
2022-09-30T16:15:41.543Z,17.23
2022-09-30T16:18:19.986Z,17.08
2022-09-30T16:21:05.520Z,17.50
2022-09-30T16:23:38.484Z,17.38
2022-09-30T16:26:16.586Z,18.05
2022-09-30T16:28:43.856Z,16.80
2022-09-30T16:31:15.497Z,16.80
2022-09-30T16:36:11.949Z,16.63
2022-09-30T16:38:39.252Z,15.55
2022-09-30T16:41:06.704Z,14.48
2022-09-30T16:43:34.572Z,16.40
2022-09-30T16:46:02.967Z,18.35
2022-09-30T16:48:30.877Z,16.10
2022-09-30T16:51:12.045Z,17.00
2022-09-30T16:53:39.332Z,17.35
2022-09-30T16:56:19.815Z,17.83
2022-09-30T16:58:47.710Z,18.05
2022-09-30T17:01:20.019Z,18.70
2022-09-30T17:03:48.050Z,20.23
2022-09-30T17:06:18.092Z,21.30
2022-09-30T17:08:45.530Z,22.90
2022-09-30T17:11:13.265Z,21.40
2022-09-30T17:13:42.746Z,22.90
2022-09-30T17:16:10.198Z,20.15
2022-09-30T17:18:37.600Z,20.92
2022-09-30T17:21:05.338Z,20.65
2022-09-30T17:23:32.561Z,18.20
2022-09-30T17:25:59.750Z,17.67
2022-09-30T17:28:26.810Z,16.45
2022-09-30T17:30:54.624Z,17.75
2022-09-30T17:33:22.683Z,17.73
2022-09-30T17:36:00.912Z,16.25
2022-09-30T17:38:29.027Z,15.80
2022-09-30T17:41:15.040Z,17.48
2022-09-30T17:43:42.314Z,16.63
2022-09-30T17:46:09.525Z,15.57
2022-09-30T17:48:39.627Z,16.30
2022-09-30T17:51:08.332Z,14.50
2022-09-30T17:53:36.972Z,15.38
2022-09-30T17:56:14.351Z,13.43
2022-09-30T17:58:42.511Z,20.05
2022-09-30T18:01:10.556Z,14.23
2022-09-30T18:03:37.897Z,12.77
2022-09-30T18:06:07.010Z,13.85
2022-09-30T18:08:36.117Z,13.38
2022-09-30T18:11:04.496Z,13.18
2022-09-30T18:13:32.370Z,12.63
2022-09-30T18:16:03.589Z,12.52
2022-09-30T18:18:33.773Z,11.85
2022-09-30T18:21:03.567Z,11.13
2022-09-30T18:23:30.908Z,10.95
2022-09-30T18:25:58.860Z,11.70
2022-09-30T18:28:26.877Z,12.63
2022-09-30T18:30:54.230Z,11.70
2022-09-30T18:33:25.398Z,11.80
2022-09-30T18:35:52.644Z,10.75
2022-09-30T18:38:20.343Z,11.13
2022-09-30T18:40:52.084Z,11.05
2022-09-30T18:43:19.478Z,11.57
2022-09-30T18:45:54.030Z,10.38
2022-09-30T18:48:22.458Z,10.15
2022-09-30T18:50:51.822Z,7.88
2022-09-30T18:53:22.116Z,7.22
2022-09-30T18:55:51.878Z,6.20
2022-09-30T18:58:23.641Z,5.97
2022-09-30T19:00:50.888Z,5.90
2022-09-30T19:03:19.184Z,5.55
2022-09-30T19:05:46.349Z,5.80
2022-09-30T19:08:15.836Z,6.18
2022-09-30T19:10:43.077Z,5.78
2022-09-30T19:13:10.204Z,5.68
2022-09-30T19:15:38.931Z,5.63
2022-09-30T19:18:10.005Z,5.15
2022-09-30T19:20:38.386Z,5.38
2022-09-30T19:23:09.072Z,4.65
2022-09-30T19:25:38.892Z,4.03
2022-09-30T19:28:06.838Z,4.35
2022-09-30T19:30:34.064Z,3.50
2022-09-30T19:33:01.227Z,2.97
2022-09-30T19:35:38.203Z,2.65
2022-09-30T19:38:08.595Z,3.00
2022-09-30T19:40:37.625Z,2.65
2022-09-30T19:43:05.325Z,2.65
2022-09-30T19:45:33.599Z,2.92
2022-09-30T19:48:01.855Z,3.47
2022-09-30T19:50:33.126Z,3.38
2022-09-30T19:53:01.815Z,3.75
2022-09-30T19:55:29.288Z,4.68
2022-09-30T19:57:56.939Z,5.03
2022-09-30T20:00:24.357Z,5.22
2022-09-30T20:02:53.325Z,4.80
2022-09-30T20:05:21.195Z,5.90
2022-09-30T20:07:51.331Z,3.88
2022-09-30T20:10:18.923Z,4.18
2022-09-30T20:12:46.178Z,4.38
2022-09-30T20:15:31.524Z,4.53
2022-09-30T20:17:58.942Z,2.92
2022-09-30T20:20:35.371Z,3.55
2022-09-30T20:23:03.836Z,3.42
2022-09-30T20:25:31.503Z,3.47
2022-09-30T20:27:58.973Z,3.65
2022-09-30T20:30:29.992Z,3.40
2022-09-30T20:32:57.009Z,3.05
2022-09-30T20:35:24.993Z,3.45
2022-09-30T20:37:53.486Z,3.63
2022-09-30T20:40:20.918Z,2.72
2022-09-30T20:42:48.006Z,2.72
2022-09-30T20:45:15.523Z,2.83
2022-09-30T20:47:47.151Z,2.88
2022-09-30T20:50:14.237Z,3.25
2022-09-30T20:52:41.214Z,3.22
2022-09-30T20:55:09.563Z,3.20
2022-09-30T20:57:36.453Z,3.55
2022-09-30T21:00:04.649Z,4.25
2022-09-30T21:02:31.442Z,4.13
2022-09-30T21:04:58.460Z,4.28
2022-09-30T21:07:26.614Z,3.95
2022-09-30T21:09:53.555Z,4.13
2022-09-30T21:12:20.520Z,5.38
2022-09-30T21:14:47.480Z,4.85
2022-09-30T21:17:14.257Z,4.10
2022-09-30T21:19:41.278Z,3.67
2022-09-30T21:22:08.116Z,3.60
2022-09-30T21:24:35.020Z,3.63
2022-09-30T21:27:05.841Z,3.95
2022-09-30T21:29:33.001Z,3.28
2022-09-30T21:32:00.526Z,3.45
2022-09-30T21:34:28.040Z,2.90
2022-09-30T21:36:54.970Z,3.63
2022-09-30T21:39:21.803Z,3.25
2022-09-30T21:41:48.829Z,3.45
2022-09-30T21:44:16.184Z,3.47
2022-09-30T21:46:48.189Z,3.83
2022-09-30T21:49:21.027Z,4.47
2022-09-30T21:51:47.856Z,4.80
2022-09-30T21:54:15.461Z,4.80
2022-09-30T21:56:43.701Z,3.95
2022-09-30T21:59:11.958Z,3.80
2022-09-30T22:01:39.537Z,4.05
2022-09-30T22:04:06.608Z,3.42
2022-09-30T22:06:33.539Z,4.78
2022-09-30T22:09:01.543Z,3.80
2022-09-30T22:11:30.434Z,4.25
2022-09-30T22:13:59.378Z,4.90
2022-09-30T22:16:29.797Z,5.47
2022-09-30T22:19:00.192Z,5.00
2022-09-30T22:21:31.804Z,4.50
2022-09-30T22:24:01.518Z,5.68
2022-09-30T22:26:29.181Z,4.05
2022-09-30T22:28:59.451Z,4.45
2022-09-30T22:31:29.564Z,4.15
2022-09-30T22:34:31.269Z,4.28
2022-09-30T22:37:16.782Z,3.83
2022-09-30T22:39:43.606Z,4.03
2022-09-30T22:42:10.449Z,4.18
2022-09-30T22:44:37.627Z,4.13
2022-09-30T22:47:08.123Z,3.95
2022-09-30T22:49:35.234Z,4.60
2022-09-30T22:52:02.926Z,4.82
2022-09-30T22:54:30.653Z,4.65
2022-09-30T22:56:59.365Z,4.65
2022-09-30T22:59:27.077Z,4.22
2022-09-30T23:01:54.560Z,4.40
2022-09-30T23:04:22.197Z,4.07
2022-09-30T23:06:50.834Z,3.97
2022-09-30T23:09:18.389Z,4.75
2022-09-30T23:11:46.167Z,3.78
2022-09-30T23:14:13.394Z,4.13
2022-09-30T23:16:40.791Z,4.40
2022-09-30T23:19:07.834Z,4.10
2022-09-30T23:21:35.334Z,3.80
2022-09-30T23:24:02.572Z,3.75
2022-09-30T23:26:31.181Z,3.60
2022-09-30T23:28:59.892Z,3.70
2022-09-30T23:31:27.334Z,6.82
2022-09-30T23:33:57.185Z,5.05
2022-09-30T23:36:29.739Z,4.43
2022-09-30T23:39:12.691Z,3.80
2022-09-30T23:41:40.094Z,3.42
2022-09-30T23:44:09.635Z,3.10
2022-09-30T23:46:36.587Z,2.63
2022-09-30T23:49:03.511Z,2.92
2022-09-30T23:51:33.589Z,3.05
2022-09-30T23:54:02.308Z,2.47
2022-09-30T23:56:29.176Z,2.80
2022-09-30T23:58:55.942Z,3.60
